createdAt,value
2022-08-14T00:04:44.869Z,25.60
2022-08-14T00:09:55.521Z,25.70
2022-08-14T00:14:55.424Z,25.70
2022-08-14T00:19:55.063Z,25.60
2022-08-14T00:24:53.318Z,25.60
2022-08-14T00:29:51.567Z,25.70
2022-08-14T00:34:49.845Z,25.70
2022-08-14T00:39:51.112Z,25.70
2022-08-14T00:44:50.055Z,25.80
2022-08-14T00:49:56.282Z,25.70
2022-08-14T00:54:58.274Z,25.70
2022-08-14T00:59:57.483Z,25.80
2022-08-14T01:04:58.316Z,25.80
2022-08-14T01:10:01.755Z,25.70
2022-08-14T01:15:02.720Z,25.70
2022-08-14T01:20:27.698Z,25.70
2022-08-14T01:25:29.467Z,25.70
2022-08-14T01:30:28.612Z,25.70
2022-08-14T01:36:03.309Z,25.60
2022-08-14T01:40:48.979Z,25.60
2022-08-14T01:46:06.196Z,25.60
2022-08-14T01:51:19.455Z,25.60
2022-08-14T01:56:20.314Z,25.50
2022-08-14T02:01:19.694Z,25.50
2022-08-14T02:06:32.216Z,25.50
2022-08-14T02:11:34.205Z,25.50
2022-08-14T02:16:39.303Z,25.50
2022-08-14T02:21:43.169Z,25.40
2022-08-14T02:26:58.298Z,25.40
2022-08-14T02:32:10.513Z,25.30
2022-08-14T02:37:47.473Z,25.30
2022-08-14T02:42:55.059Z,25.20
2022-08-14T02:47:57.606Z,25.20
2022-08-14T02:53:03.155Z,25.20
2022-08-14T02:58:05.844Z,25.00
2022-08-14T03:03:07.574Z,25.00
2022-08-14T03:14:39.673Z,24.80
2022-08-14T03:19:38.050Z,24.70
2022-08-14T03:24:37.522Z,24.70
2022-08-14T03:29:40.839Z,24.60
2022-08-14T03:34:48.014Z,24.60
2022-08-14T03:39:51.127Z,24.60
2022-08-14T03:45:18.774Z,24.50
2022-08-14T03:50:11.084Z,24.50
2022-08-14T03:55:12.339Z,24.50
2022-08-14T04:00:42.949Z,24.40
2022-08-14T04:05:42.874Z,24.40
2022-08-14T04:10:41.794Z,24.30
2022-08-14T04:16:01.259Z,24.30
2022-08-14T04:21:01.077Z,24.20
2022-08-14T04:25:59.311Z,24.20
2022-08-14T04:30:59.546Z,24.10
2022-08-14T04:35:57.867Z,24.10
2022-08-14T04:41:13.429Z,24.10
2022-08-14T04:46:56.110Z,24.10
2022-08-14T04:51:37.521Z,24.10
2022-08-14T04:56:45.466Z,24.00
2022-08-14T05:01:49.138Z,24.00
2022-08-14T05:06:53.697Z,24.00
2022-08-14T05:11:53.875Z,24.10
2022-08-14T05:16:53.599Z,24.10
2022-08-14T05:22:00.260Z,24.10
2022-08-14T05:27:11.741Z,24.20
2022-08-14T05:32:11.336Z,24.30
2022-08-14T05:37:09.555Z,24.30
2022-08-14T05:42:21.312Z,24.40
2022-08-14T05:47:22.102Z,24.40
2022-08-14T05:52:38.572Z,24.50
2022-08-14T05:57:47.907Z,24.70
2022-08-14T06:02:47.501Z,24.80
2022-08-14T06:07:45.708Z,25.00
2022-08-14T06:12:56.543Z,25.10
2022-08-14T06:17:58.537Z,25.30
2022-08-14T06:22:57.783Z,25.50
2022-08-14T06:27:58.176Z,25.70
2022-08-14T06:33:06.777Z,25.80
2022-08-14T06:38:05.491Z,26.00
2022-08-14T06:43:05.398Z,26.20
2022-08-14T06:48:14.311Z,26.40
2022-08-14T06:53:16.482Z,26.60
2022-08-14T06:58:28.334Z,26.80
2022-08-14T07:03:46.166Z,26.80
2022-08-14T07:09:44.293Z,27.00
2022-08-14T07:14:49.058Z,27.30
2022-08-14T07:19:48.650Z,27.50
2022-08-14T07:24:49.478Z,27.80
2022-08-14T07:29:47.897Z,28.10
2022-08-14T07:34:46.162Z,28.30
2022-08-14T07:39:46.569Z,28.70
2022-08-14T07:44:48.967Z,28.90
2022-08-14T07:50:01.791Z,29.10
2022-08-14T07:55:02.239Z,29.30
2022-08-14T08:00:00.634Z,29.50
2022-08-14T08:05:00.559Z,29.60
2022-08-14T08:10:01.175Z,29.70
2022-08-14T08:15:07.183Z,29.80
2022-08-14T08:20:06.993Z,30.10
2022-08-14T08:25:13.423Z,30.20
2022-08-14T08:30:15.029Z,30.30
2022-08-14T08:35:21.159Z,30.70
2022-08-14T08:40:31.221Z,31.00
2022-08-14T08:45:31.930Z,31.10
2022-08-14T08:55:35.379Z,31.60
2022-08-14T09:00:37.286Z,31.80
2022-08-14T09:05:51.611Z,32.00
2022-08-14T09:10:56.302Z,32.10
2022-08-14T09:15:56.888Z,32.30
2022-08-14T09:20:58.788Z,32.60
2022-08-14T09:25:59.794Z,32.80
2022-08-14T09:31:07.379Z,32.90
2022-08-14T09:36:46.533Z,33.10
2022-08-14T09:42:21.139Z,33.30
2022-08-14T09:47:16.941Z,33.60
2022-08-14T09:52:32.893Z,33.70
2022-08-14T09:57:32.406Z,33.70
2022-08-14T10:02:34.468Z,33.60
2022-08-14T10:07:35.995Z,33.50
2022-08-14T10:12:45.371Z,33.40
2022-08-14T10:17:46.433Z,33.30
2022-08-14T10:23:12.950Z,33.20
2022-08-14T10:28:03.884Z,33.20
2022-08-14T10:33:03.527Z,33.20
2022-08-14T10:38:07.282Z,33.30
2022-08-14T10:43:17.056Z,33.30
2022-08-14T10:48:34.658Z,33.30
2022-08-14T10:53:40.093Z,33.30
2022-08-14T10:58:38.733Z,33.40
2022-08-14T11:03:56.244Z,33.50
2022-08-14T11:08:55.843Z,33.60
2022-08-14T11:13:57.623Z,33.70
2022-08-14T11:18:59.677Z,33.60
2022-08-14T11:23:59.189Z,33.60
2022-08-14T11:29:01.313Z,33.60
2022-08-14T11:34:02.388Z,33.50
2022-08-14T11:39:02.341Z,33.50
2022-08-14T11:44:13.133Z,33.60
2022-08-14T11:49:34.973Z,33.90
2022-08-14T11:54:35.492Z,34.10
2022-08-14T11:59:34.320Z,34.30
2022-08-14T12:04:34.910Z,34.60
2022-08-14T12:09:36.432Z,34.90
2022-08-14T12:14:39.613Z,35.20
2022-08-14T12:19:51.263Z,35.30
2022-08-14T12:24:52.414Z,35.40
2022-08-14T12:29:54.352Z,35.60
2022-08-14T12:34:56.722Z,35.70
2022-08-14T12:39:55.700Z,35.80
2022-08-14T12:44:58.756Z,35.80
2022-08-14T12:49:58.833Z,35.80
2022-08-14T12:55:06.454Z,35.90
2022-08-14T13:00:22.540Z,35.90
2022-08-14T13:05:25.257Z,35.80
2022-08-14T13:10:46.923Z,35.60
2022-08-14T13:15:46.448Z,35.50
2022-08-14T13:20:51.210Z,35.50
2022-08-14T13:25:58.117Z,35.50
2022-08-14T13:30:58.044Z,35.60
2022-08-14T13:35:58.507Z,35.60
2022-08-14T13:40:57.241Z,35.60
2022-08-14T13:46:00.278Z,35.70
2022-08-14T13:51:02.876Z,35.70
2022-08-14T13:56:02.561Z,35.60
2022-08-14T14:01:01.224Z,35.70
2022-08-14T14:06:03.458Z,35.80
2022-08-14T14:11:01.872Z,35.90
2022-08-14T14:16:03.801Z,35.90
2022-08-14T14:21:06.525Z,35.90
2022-08-14T14:26:13.973Z,35.90
2022-08-14T14:31:13.512Z,35.90
2022-08-14T14:36:14.648Z,35.90
2022-08-14T14:41:17.418Z,35.80
2022-08-14T14:46:17.069Z,35.90
2022-08-14T14:51:17.896Z,35.80
2022-08-14T14:56:50.840Z,35.70
2022-08-14T15:01:36.983Z,35.70
2022-08-14T15:06:39.228Z,35.60
2022-08-14T15:11:47.080Z,35.60
2022-08-14T15:16:45.506Z,35.60
2022-08-14T15:21:46.877Z,35.50
2022-08-14T15:26:46.714Z,35.50
2022-08-14T15:31:44.958Z,35.50
2022-08-14T15:36:45.476Z,35.40
2022-08-14T15:41:45.550Z,35.40
2022-08-14T15:46:45.554Z,35.30
2022-08-14T15:51:43.904Z,35.20
2022-08-14T15:56:43.738Z,35.20
2022-08-14T16:01:54.765Z,35.20
2022-08-14T16:06:55.603Z,35.20
2022-08-14T16:11:54.210Z,35.10
2022-08-14T16:17:00.443Z,35.10
2022-08-14T16:22:58.723Z,35.00
2022-08-14T16:27:37.858Z,35.00
2022-08-14T16:32:55.113Z,34.90
2022-08-14T16:37:55.516Z,34.90
2022-08-14T16:43:04.802Z,34.80
2022-08-14T16:48:57.155Z,34.70
2022-08-14T16:53:31.692Z,34.70
2022-08-14T16:58:34.548Z,34.60
2022-08-14T17:03:42.199Z,34.50
2022-08-14T17:08:46.006Z,34.40
2022-08-14T17:13:57.708Z,34.30
2022-08-14T17:19:03.553Z,34.20
2022-08-14T17:24:58.010Z,34.00
2022-08-14T17:29:29.408Z,33.90
2022-08-14T17:34:46.375Z,33.80
2022-08-14T17:39:59.961Z,33.70
2022-08-14T17:45:02.113Z,33.50
2022-08-14T17:50:04.025Z,33.50
2022-08-14T17:56:01.456Z,33.30
2022-08-14T18:00:43.522Z,33.20
2022-08-14T18:06:07.040Z,33.00
2022-08-14T18:11:07.143Z,33.00
2022-08-14T18:16:08.662Z,32.80
2022-08-14T18:21:40.673Z,32.70
2022-08-14T18:26:40.740Z,32.60
2022-08-14T18:31:42.018Z,32.40
2022-08-14T18:36:54.323Z,32.30
2022-08-14T18:41:57.371Z,32.20
2022-08-14T18:47:23.729Z,32.10
2022-08-14T18:52:43.957Z,32.00
2022-08-14T18:58:26.648Z,31.90
2022-08-14T19:04:04.037Z,31.80
2022-08-14T19:09:04.504Z,31.60
2022-08-14T19:14:04.779Z,31.40
2022-08-14T19:19:06.725Z,31.30
2022-08-14T19:24:27.797Z,31.10
2022-08-14T19:29:36.277Z,31.00
2022-08-14T19:34:52.085Z,30.80
2022-08-14T19:39:54.407Z,30.60
2022-08-14T19:44:54.092Z,30.40
2022-08-14T19:50:24.677Z,30.30
2022-08-14T19:55:17.871Z,30.10
2022-08-14T20:00:28.438Z,30.00
2022-08-14T20:05:27.943Z,29.90
2022-08-14T20:11:06.405Z,29.70
2022-08-14T20:15:56.217Z,29.60
2022-08-14T20:20:55.252Z,29.40
2022-08-14T20:25:57.223Z,29.30
2022-08-14T20:31:14.596Z,29.20
2022-08-14T20:36:15.025Z,29.00
2022-08-14T20:41:26.254Z,28.80
2022-08-14T20:46:29.781Z,28.80
2022-08-14T20:51:36.749Z,28.70
2022-08-14T20:56:40.490Z,28.60
2022-08-14T21:01:41.001Z,28.60
2022-08-14T21:07:23.842Z,28.50
2022-08-14T21:12:03.929Z,28.40
2022-08-14T21:17:03.496Z,28.30
2022-08-14T21:22:02.470Z,28.30
2022-08-14T21:27:12.453Z,28.30
2022-08-14T21:32:20.547Z,28.20
2022-08-14T21:37:19.390Z,28.20
2022-08-14T21:42:18.028Z,28.10
2022-08-14T21:47:17.577Z,28.00
2022-08-14T21:52:51.959Z,27.90
2022-08-14T21:58:51.180Z,27.80
2022-08-14T22:03:06.316Z,27.70
2022-08-14T22:08:12.394Z,27.70
2022-08-14T22:13:11.658Z,27.60
2022-08-14T22:18:20.296Z,27.50
2022-08-14T22:23:19.423Z,27.50
2022-08-14T22:28:27.183Z,27.50
2022-08-14T22:33:32.935Z,27.50
2022-08-14T22:38:37.782Z,27.40
2022-08-14T22:43:37.649Z,27.30
2022-08-14T22:48:38.900Z,27.30
2022-08-14T22:53:37.287Z,27.30
2022-08-14T22:58:38.243Z,27.20
2022-08-14T23:03:39.943Z,27.20
2022-08-14T23:09:01.604Z,27.10
2022-08-14T23:14:00.915Z,27.00
2022-08-14T23:19:02.954Z,27.00
2022-08-14T23:24:03.003Z,26.90
2022-08-14T23:29:01.785Z,26.80
2022-08-14T23:34:00.087Z,26.80
2022-08-14T23:39:00.264Z,26.70
2022-08-14T23:43:58.477Z,26.70
2022-08-14T23:48:57.648Z,26.60
2022-08-14T23:53:56.276Z,26.50
2022-08-14T23:58:56.283Z,26.40
